createdAt,value
2023-03-28T00:00:00.877Z,1.2
2023-03-28T00:01:00.886Z,1.2
2023-03-28T00:02:00.888Z,1.2
2023-03-28T00:03:00.900Z,1.3
2023-03-28T00:04:01.647Z,1.3
2023-03-28T00:05:00.884Z,1.3
2023-03-28T00:06:01.263Z,1.2
2023-03-28T00:07:00.883Z,1.2
2023-03-28T00:08:00.867Z,1.2
2023-03-28T00:09:00.872Z,1.3
2023-03-28T00:10:00.889Z,1.3
2023-03-28T00:11:00.880Z,1.2
2023-03-28T00:12:00.892Z,1.3
2023-03-28T00:13:00.890Z,1.3
2023-03-28T00:14:01.195Z,1.3
2023-03-28T00:15:00.895Z,1.3
2023-03-28T00:16:01.386Z,1.3
2023-03-28T00:17:00.929Z,1.3
2023-03-28T00:18:00.928Z,1.3
2023-03-28T00:19:00.875Z,1.3
2023-03-28T00:20:00.881Z,1.3
2023-03-28T00:21:00.885Z,1.3
2023-03-28T00:22:00.913Z,1.3
2023-03-28T00:23:00.891Z,1.4
2023-03-28T00:24:00.896Z,1.3
2023-03-28T00:25:00.905Z,1.4
2023-03-28T00:26:01.073Z,1.4
2023-03-28T00:27:00.916Z,1.3
2023-03-28T00:28:00.910Z,1.3
2023-03-28T00:29:00.923Z,1.3
2023-03-28T00:30:00.907Z,1.3
2023-03-28T00:31:00.907Z,1.3
2023-03-28T00:32:00.940Z,1.3
2023-03-28T00:33:00.931Z,1.3
2023-03-28T00:34:00.899Z,1.3
2023-03-28T00:35:00.901Z,1.2
2023-03-28T00:36:01.197Z,1.2
2023-03-28T00:37:00.919Z,1.2
2023-03-28T00:38:00.900Z,1.2
2023-03-28T00:39:00.906Z,1.2
2023-03-28T00:40:00.918Z,1.2
2023-03-28T00:41:00.854Z,1.1
2023-03-28T00:42:00.857Z,1.1
2023-03-28T00:43:00.818Z,1.1
2023-03-28T00:44:00.830Z,1.1
2023-03-28T00:45:00.741Z,1
2023-03-28T00:46:09.176Z,1
2023-03-28T00:47:00.785Z,0.9
2023-03-28T00:48:00.669Z,0.9
2023-03-28T00:49:00.623Z,0.9
2023-03-28T00:50:00.628Z,0.9
2023-03-28T00:51:00.563Z,0.9
2023-03-28T00:52:00.565Z,0.8
2023-03-28T00:53:00.547Z,0.8
2023-03-28T00:54:00.544Z,0.8
2023-03-28T00:55:00.603Z,0.8
2023-03-28T00:56:00.766Z,0.8
2023-03-28T00:57:00.625Z,0.8
2023-03-28T00:58:00.563Z,0.8
2023-03-28T00:59:00.547Z,0.8
2023-03-28T01:00:00.600Z,0.8
2023-03-28T01:01:00.555Z,0.8
2023-03-28T01:02:00.619Z,0.8
2023-03-28T01:03:00.654Z,0.8
2023-03-28T01:04:00.589Z,0.7
2023-03-28T01:05:00.589Z,0.7
2023-03-28T01:06:00.790Z,0.7
2023-03-28T01:07:01.688Z,0.6
2023-03-28T01:08:00.605Z,0.6
2023-03-28T01:09:00.560Z,0.6
2023-03-28T01:10:00.647Z,0.6
2023-03-28T01:11:00.727Z,0.5
2023-03-28T01:12:00.613Z,0.5
2023-03-28T01:13:00.613Z,0.5
2023-03-28T01:14:00.726Z,0.5
2023-03-28T01:15:00.678Z,0.5
2023-03-28T01:16:00.942Z,0.5
2023-03-28T01:17:00.596Z,0.4
2023-03-28T01:18:00.750Z,0.4
2023-03-28T01:19:00.612Z,0.4
2023-03-28T01:20:00.645Z,0.4
2023-03-28T01:21:00.632Z,0.4
2023-03-28T01:22:00.687Z,0.3
2023-03-28T01:23:00.664Z,0.3
2023-03-28T01:24:11.854Z,0.3
2023-03-28T01:25:00.666Z,0.3
2023-03-28T01:26:00.852Z,0.2
2023-03-28T01:27:00.688Z,0.2
2023-03-28T01:28:00.725Z,0.2
2023-03-28T01:29:00.698Z,0.2
2023-03-28T01:30:00.824Z,0.2
2023-03-28T01:31:00.674Z,0.1
2023-03-28T01:32:00.673Z,0.1
2023-03-28T01:33:00.695Z,0.1
2023-03-28T01:34:00.669Z,0.1
2023-03-28T01:35:00.617Z,0.1
2023-03-28T01:36:00.973Z,0.1
2023-03-28T01:37:00.612Z,0
2023-03-28T01:38:00.632Z,0
2023-03-28T01:39:00.771Z,0
2023-03-28T01:40:00.766Z,-0.1
2023-03-28T01:41:00.654Z,-0.1
2023-03-28T01:42:00.679Z,-0.1
2023-03-28T01:43:00.660Z,-0.1
2023-03-28T01:44:00.637Z,-0.2
2023-03-28T01:45:00.620Z,-0.2
2023-03-28T01:46:00.824Z,-0.2
2023-03-28T01:47:00.636Z,-0.2
2023-03-28T01:48:00.624Z,-0.3
2023-03-28T01:49:00.590Z,-0.3
2023-03-28T01:50:00.630Z,-0.3
2023-03-28T01:51:00.614Z,-0.4
2023-03-28T01:52:00.614Z,-0.4
2023-03-28T01:53:00.596Z,-0.4
2023-03-28T01:54:00.619Z,-0.4
2023-03-28T01:55:00.639Z,-0.4
2023-03-28T01:56:00.773Z,-0.4
2023-03-28T01:57:00.692Z,-0.4
2023-03-28T01:58:00.603Z,-0.4
2023-03-28T01:59:00.616Z,-0.5
2023-03-28T02:00:00.938Z,-0.5
2023-03-28T02:01:00.812Z,-0.5
2023-03-28T02:02:00.827Z,-0.5
2023-03-28T02:03:00.877Z,-0.4
2023-03-28T02:04:00.830Z,-0.4
2023-03-28T02:05:00.826Z,-0.4
2023-03-28T02:06:01.038Z,-0.4
2023-03-28T02:07:00.830Z,-0.4
2023-03-28T02:08:00.787Z,-0.4
2023-03-28T02:09:00.811Z,-0.4
2023-03-28T02:10:01.001Z,-0.4
2023-03-28T02:11:00.792Z,-0.3
2023-03-28T02:12:00.791Z,-0.3
2023-03-28T02:13:00.810Z,-0.3
2023-03-28T02:14:00.798Z,-0.3
2023-03-28T02:15:00.837Z,-0.3
2023-03-28T02:16:00.996Z,-0.4
2023-03-28T02:17:00.805Z,-0.4
2023-03-28T02:18:00.823Z,-0.4
2023-03-28T02:19:00.838Z,-0.4
2023-03-28T02:20:00.901Z,-0.4
2023-03-28T02:21:00.809Z,-0.4
2023-03-28T02:22:00.833Z,-0.4
2023-03-28T02:23:00.812Z,-0.4
2023-03-28T02:24:00.831Z,-0.4
2023-03-28T02:25:00.832Z,-0.4
2023-03-28T02:26:01.114Z,-0.4
2023-03-28T02:27:00.836Z,-0.4
2023-03-28T02:28:00.817Z,-0.4
2023-03-28T02:29:00.852Z,-0.4
2023-03-28T02:30:00.856Z,-0.4
2023-03-28T02:31:00.835Z,-0.5
2023-03-28T02:32:00.895Z,-0.5
2023-03-28T02:33:00.935Z,-0.5
2023-03-28T02:34:00.846Z,-0.5
2023-03-28T02:35:00.858Z,-0.5
2023-03-28T02:36:01.103Z,-0.6
2023-03-28T02:37:00.852Z,-0.6
2023-03-28T02:38:00.844Z,-0.5
2023-03-28T02:39:00.864Z,-0.6
2023-03-28T02:40:00.862Z,-0.5
2023-03-28T02:41:00.866Z,-0.6
2023-03-28T02:42:00.843Z,-0.6
2023-03-28T02:43:00.835Z,-0.6
2023-03-28T02:44:00.866Z,-0.6
2023-03-28T02:45:00.838Z,-0.6
2023-03-28T02:46:01.063Z,-0.6
2023-03-28T02:47:01.475Z,-0.6
2023-03-28T02:48:00.893Z,-0.6
2023-03-28T02:49:00.857Z,-0.6
2023-03-28T02:50:00.873Z,-0.6
2023-03-28T02:51:00.842Z,-0.6
2023-03-28T02:52:00.868Z,-0.6
2023-03-28T02:53:00.849Z,-0.6
2023-03-28T02:54:00.869Z,-0.7
2023-03-28T02:55:00.859Z,-0.7
2023-03-28T02:56:01.027Z,-0.7
2023-03-28T02:57:00.892Z,-0.8
2023-03-28T02:58:00.878Z,-0.8
2023-03-28T02:59:00.852Z,-0.7
2023-03-28T03:00:00.916Z,-0.7
2023-03-28T03:01:00.890Z,-0.7
2023-03-28T03:02:00.874Z,-0.7
2023-03-28T03:03:00.906Z,-0.7
2023-03-28T03:04:00.933Z,-0.7
2023-03-28T03:05:00.856Z,-0.8
2023-03-28T03:06:01.023Z,-0.8
2023-03-28T03:07:00.880Z,-0.8
2023-03-28T03:08:00.879Z,-0.8
2023-03-28T03:09:00.880Z,-0.8
2023-03-28T03:10:00.895Z,-0.8
2023-03-28T03:11:00.885Z,-0.8
2023-03-28T03:12:00.862Z,-0.8
2023-03-28T03:13:00.884Z,-0.8
2023-03-28T03:14:00.868Z,-0.8
2023-03-28T03:15:00.874Z,-0.8
2023-03-28T03:16:01.249Z,-0.8
2023-03-28T03:17:00.911Z,-0.8
2023-03-28T03:18:00.961Z,-0.8
2023-03-28T03:19:00.879Z,-0.8
2023-03-28T03:20:00.897Z,-0.8
2023-03-28T03:21:00.891Z,-0.8
2023-03-28T03:22:00.912Z,-0.8
2023-03-28T03:23:00.897Z,-0.8
2023-03-28T03:24:00.876Z,-0.8
2023-03-28T03:25:00.890Z,-0.8
2023-03-28T03:26:01.267Z,-0.8
2023-03-28T03:27:00.913Z,-0.8
2023-03-28T03:28:00.895Z,-0.8
2023-03-28T03:29:00.934Z,-0.8
2023-03-28T03:30:00.893Z,-0.8
2023-03-28T03:31:00.902Z,-0.8
2023-03-28T03:32:00.882Z,-0.8
2023-03-28T03:33:00.946Z,-0.8
2023-03-28T03:34:00.889Z,-0.8
2023-03-28T03:35:00.892Z,-0.8
2023-03-28T03:36:01.155Z,-0.8
2023-03-28T03:37:00.915Z,-0.8
2023-03-28T03:38:00.909Z,-0.8
2023-03-28T03:39:00.892Z,-0.8
2023-03-28T03:40:00.917Z,-0.8
2023-03-28T03:41:00.888Z,-0.8
2023-03-28T03:42:00.913Z,-0.8
2023-03-28T03:43:00.930Z,-0.8
2023-03-28T03:44:00.922Z,-0.8
2023-03-28T03:45:00.897Z,-0.9
2023-03-28T03:46:01.326Z,-0.9
2023-03-28T03:47:00.902Z,-0.9
2023-03-28T03:48:00.974Z,-0.9
2023-03-28T03:49:00.899Z,-0.9
2023-03-28T03:50:00.909Z,-0.9
2023-03-28T03:51:00.920Z,-1
2023-03-28T03:52:00.941Z,-1.1
2023-03-28T03:53:00.938Z,-1.1
2023-03-28T03:54:00.907Z,-1.2
2023-03-28T03:55:00.903Z,-1.2
2023-03-28T03:56:01.175Z,-1.2
2023-03-28T03:57:00.937Z,-1.3
2023-03-28T03:58:00.929Z,-1.4
2023-03-28T03:59:00.903Z,-1.4
2023-03-28T04:00:01.030Z,-1.4
2023-03-28T04:01:00.929Z,-1.4
2023-03-28T04:02:00.927Z,-1.4
2023-03-28T04:03:00.971Z,-1.5
2023-03-28T04:04:00.925Z,-1.5
2023-03-28T04:05:00.943Z,-1.5
2023-03-28T04:06:01.055Z,-1.5
2023-03-28T04:07:00.923Z,-1.5
2023-03-28T04:08:00.940Z,-1.6
2023-03-28T04:09:00.939Z,-1.6
2023-03-28T04:10:00.957Z,-1.6
2023-03-28T04:11:00.922Z,-1.6
2023-03-28T04:12:00.919Z,-1.6
2023-03-28T04:13:00.950Z,-1.6
2023-03-28T04:14:00.926Z,-1.5
2023-03-28T04:15:00.940Z,-1.5
2023-03-28T04:16:01.145Z,-1.5
2023-03-28T04:17:00.932Z,-1.5
2023-03-28T04:18:03.416Z,-1.5
2023-03-28T04:19:00.933Z,-1.5
2023-03-28T04:20:00.967Z,-1.5
2023-03-28T04:21:00.935Z,-1.5
2023-03-28T04:22:00.937Z,-1.5
2023-03-28T04:23:01.029Z,-1.6
2023-03-28T04:24:00.951Z,-1.6
2023-03-28T04:25:00.962Z,-1.6
2023-03-28T04:26:01.125Z,-1.6
2023-03-28T04:27:00.939Z,-1.6
2023-03-28T04:28:00.963Z,-1.6
2023-03-28T04:29:00.944Z,-1.6
2023-03-28T04:30:00.964Z,-1.7
2023-03-28T04:31:00.999Z,-1.7
2023-03-28T04:32:00.970Z,-1.8
2023-03-28T04:33:01.011Z,-1.8
2023-03-28T04:34:00.956Z,-1.8
2023-03-28T04:35:00.962Z,-1.8
2023-03-28T04:36:01.247Z,-1.8
2023-03-28T04:37:00.949Z,-1.8
2023-03-28T04:38:00.972Z,-1.8
2023-03-28T04:39:00.949Z,-1.8
2023-03-28T04:40:00.988Z,-1.8
2023-03-28T04:41:00.990Z,-1.8
2023-03-28T04:42:01.019Z,-1.8
2023-03-28T04:43:00.979Z,-1.8
2023-03-28T04:44:00.996Z,-1.8
2023-03-28T04:45:00.958Z,-1.9
2023-03-28T04:46:01.107Z,-1.9
2023-03-28T04:47:00.965Z,-1.9
2023-03-28T04:48:00.997Z,-2
2023-03-28T04:49:00.974Z,-2
2023-03-28T04:50:00.992Z,-2
2023-03-28T04:51:00.994Z,-2.1
2023-03-28T04:52:00.965Z,-2.1
2023-03-28T04:53:00.966Z,-2.1
2023-03-28T04:54:00.994Z,-2.1
2023-03-28T04:55:00.989Z,-2.2
2023-03-28T04:56:01.257Z,-2.2
2023-03-28T04:57:01.018Z,-2.2
2023-03-28T04:58:01.010Z,-2.3
2023-03-28T04:59:00.991Z,-2.3
2023-03-28T05:00:01.016Z,-2.4
2023-03-28T05:01:01.282Z,-2.4
2023-03-28T05:02:00.975Z,-2.4
2023-03-28T05:03:01.097Z,-2.5
2023-03-28T05:04:00.993Z,-2.5
2023-03-28T05:05:00.981Z,-2.5
2023-03-28T05:06:00.996Z,-2.6
2023-03-28T05:07:00.980Z,-2.5
2023-03-28T05:08:01.000Z,-2.6
2023-03-28T05:09:01.003Z,-2.6
2023-03-28T05:10:01.016Z,-2.6
2023-03-28T05:11:01.323Z,-2.6
2023-03-28T05:12:00.985Z,-2.6
2023-03-28T05:13:01.004Z,-2.6
2023-03-28T05:14:00.996Z,-2.7
2023-03-28T05:15:00.998Z,-2.7
2023-03-28T05:16:00.992Z,-2.7
2023-03-28T05:17:01.005Z,-2.8
2023-03-28T05:18:01.015Z,-2.8
2023-03-28T05:19:01.008Z,-2.8
2023-03-28T05:20:01.057Z,-2.8
2023-03-28T05:21:01.141Z,-2.8
2023-03-28T05:22:00.993Z,-2.8
2023-03-28T05:23:01.007Z,-2.8
2023-03-28T05:24:01.010Z,-2.8
2023-03-28T05:25:01.022Z,-2.8
2023-03-28T05:26:00.998Z,-2.9
2023-03-28T05:27:01.000Z,-2.9
2023-03-28T05:28:01.013Z,-2.9
2023-03-28T05:29:01.001Z,-2.9
2023-03-28T05:30:01.056Z,-2.9
2023-03-28T05:31:01.306Z,-2.9
2023-03-28T05:32:01.068Z,-2.9
2023-03-28T05:33:01.097Z,-2.9
2023-03-28T05:34:01.019Z,-2.9
2023-03-28T05:35:01.016Z,-2.8
2023-03-28T05:36:01.031Z,-2.8
2023-03-28T05:37:01.012Z,-2.8
2023-03-28T05:38:01.035Z,-2.8
2023-03-28T05:39:01.011Z,-2.8
2023-03-28T05:40:01.034Z,-2.8
2023-03-28T05:41:01.310Z,-2.8
2023-03-28T05:42:01.011Z,-2.8
2023-03-28T05:43:01.031Z,-2.8
2023-03-28T05:44:01.062Z,-2.8
2023-03-28T05:45:01.191Z,-2.8
2023-03-28T05:46:01.183Z,-2.8
2023-03-28T05:47:01.273Z,-2.8
2023-03-28T05:48:01.086Z,-2.8
2023-03-28T05:49:01.123Z,-2.7
2023-03-28T05:50:01.138Z,-2.7
2023-03-28T05:51:01.459Z,-2.7
2023-03-28T05:52:01.072Z,-2.6
2023-03-28T05:53:01.130Z,-2.6
2023-03-28T05:54:01.121Z,-2.6
2023-03-28T05:55:01.128Z,-2.6
2023-03-28T05:56:01.108Z,-2.5
2023-03-28T05:57:01.304Z,-2.5
2023-03-28T05:58:01.185Z,-2.5
2023-03-28T05:59:01.139Z,-2.4
2023-03-28T06:00:01.325Z,-2.4
2023-03-28T06:01:01.380Z,-2.4
2023-03-28T06:02:01.232Z,-2.4
2023-03-28T06:03:01.158Z,-2.3
2023-03-28T06:04:01.169Z,-2.2
2023-03-28T06:05:01.297Z,-2.2
2023-03-28T06:06:01.177Z,-2.2
2023-03-28T06:07:03.060Z,-2.2
2023-03-28T06:08:01.189Z,-2.1
2023-03-28T06:09:01.064Z,-2.1
2023-03-28T06:10:01.088Z,-2.1
2023-03-28T06:11:01.491Z,-2
2023-03-28T06:12:01.065Z,-1.9
2023-03-28T06:13:01.095Z,-1.9
2023-03-28T06:14:01.082Z,-1.9
2023-03-28T06:15:01.112Z,-1.9
2023-03-28T06:16:01.062Z,-1.8
2023-03-28T06:17:01.103Z,-1.8
2023-03-28T06:18:01.086Z,-1.6
2023-03-28T06:19:14.302Z,-1.6
2023-03-28T06:20:01.109Z,-1.5
2023-03-28T06:21:01.436Z,-1.5
2023-03-28T06:22:01.621Z,-1.4
2023-03-28T06:23:01.061Z,-1.4
2023-03-28T06:24:01.081Z,-1.3
2023-03-28T06:25:01.072Z,-1.2
2023-03-28T06:26:01.093Z,-1.2
2023-03-28T06:27:01.092Z,-1.2
2023-03-28T06:28:01.088Z,-1.1
2023-03-28T06:29:01.100Z,-1.1
2023-03-28T06:30:01.099Z,-1.1
2023-03-28T06:31:01.263Z,-1.1
2023-03-28T06:32:01.062Z,-1
2023-03-28T06:33:01.096Z,-0.9
2023-03-28T06:34:01.073Z,-0.9
2023-03-28T06:35:01.097Z,-0.8
2023-03-28T06:36:01.143Z,-0.8
2023-03-28T06:37:01.063Z,-0.8
2023-03-28T06:38:01.104Z,-0.7
2023-03-28T06:39:01.064Z,-0.7
2023-03-28T06:40:01.112Z,-0.6
2023-03-28T06:41:01.298Z,-0.6
2023-03-28T06:42:01.042Z,-0.6
2023-03-28T06:43:01.013Z,-0.5
2023-03-28T06:44:00.990Z,-0.4
2023-03-28T06:45:00.930Z,-0.4
2023-03-28T06:46:00.939Z,-0.4
2023-03-28T06:47:00.881Z,-0.3
2023-03-28T06:48:00.975Z,-0.2
2023-03-28T06:49:00.818Z,-0.2
2023-03-28T06:50:00.798Z,-0.2
2023-03-28T06:51:00.967Z,-0.1
2023-03-28T06:52:00.720Z,-0.1
2023-03-28T06:53:00.697Z,0
2023-03-28T06:54:00.683Z,0
2023-03-28T06:55:00.698Z,0.1
2023-03-28T06:56:00.644Z,0.1
2023-03-28T06:57:01.376Z,0.2
2023-03-28T06:58:00.572Z,0.2
2023-03-28T06:59:00.553Z,0.3
2023-03-28T07:00:00.584Z,0.3
2023-03-28T07:01:00.753Z,0.4
2023-03-28T07:02:00.644Z,0.4
2023-03-28T07:03:00.661Z,0.5
2023-03-28T07:04:00.765Z,0.5
2023-03-28T07:05:00.585Z,0.6
2023-03-28T07:06:00.575Z,0.6
2023-03-28T07:07:00.558Z,0.7
2023-03-28T07:08:00.564Z,0.7
2023-03-28T07:09:00.569Z,0.8
2023-03-28T07:10:00.592Z,0.8
2023-03-28T07:11:00.806Z,0.9
2023-03-28T07:12:00.591Z,0.9
2023-03-28T07:13:00.589Z,0.9
2023-03-28T07:14:00.605Z,0.9
2023-03-28T07:15:00.594Z,1.1
2023-03-28T07:16:00.568Z,1.1
2023-03-28T07:17:00.611Z,1.1
2023-03-28T07:18:00.598Z,1.2
2023-03-28T07:19:00.577Z,1.2
2023-03-28T07:20:00.601Z,1.2
2023-03-28T07:21:04.260Z,1.3
2023-03-28T07:22:00.598Z,1.4
2023-03-28T07:23:00.596Z,1.4
2023-03-28T07:24:00.596Z,1.4
2023-03-28T07:25:00.611Z,1.5
2023-03-28T07:26:00.586Z,1.6
2023-03-28T07:27:12.267Z,1.6
2023-03-28T07:28:00.598Z,1.7
2023-03-28T07:29:00.588Z,1.8
2023-03-28T07:30:00.615Z,1.8
2023-03-28T07:31:00.712Z,1.9
2023-03-28T07:32:00.718Z,1.9
2023-03-28T07:33:12.913Z,1.9
2023-03-28T07:34:00.628Z,2
2023-03-28T07:35:00.622Z,2
2023-03-28T07:36:00.639Z,2.1
2023-03-28T07:37:00.611Z,2.1
2023-03-28T07:38:00.644Z,2.2
2023-03-28T07:39:00.605Z,2.2
2023-03-28T07:40:00.643Z,2.2
2023-03-28T07:41:01.012Z,2.3
2023-03-28T07:42:00.604Z,2.3
2023-03-28T07:43:00.618Z,2.4
2023-03-28T07:44:00.618Z,2.4
2023-03-28T07:45:00.623Z,2.5
2023-03-28T07:46:00.627Z,2.6
2023-03-28T07:47:00.611Z,2.6
2023-03-28T07:48:00.636Z,2.7
2023-03-28T07:49:00.601Z,2.7
2023-03-28T07:50:00.619Z,2.8
2023-03-28T07:51:00.756Z,2.8
2023-03-28T07:52:00.604Z,2.8
2023-03-28T07:53:00.623Z,2.8
2023-03-28T07:54:00.607Z,2.9
2023-03-28T07:55:00.637Z,2.9
2023-03-28T07:56:00.608Z,3
2023-03-28T07:57:00.676Z,3.1
2023-03-28T07:58:00.664Z,3.1
2023-03-28T07:59:00.610Z,3.2
2023-03-28T08:00:00.642Z,3.2
2023-03-28T08:01:00.836Z,3.2
2023-03-28T08:02:00.612Z,3.3
2023-03-28T08:03:00.775Z,3.3
2023-03-28T08:04:00.760Z,3.4
2023-03-28T08:05:00.692Z,3.4
2023-03-28T08:06:00.669Z,3.4
2023-03-28T08:07:00.663Z,3.4
2023-03-28T08:08:00.662Z,3.5
2023-03-28T08:09:00.621Z,3.6
2023-03-28T08:10:00.632Z,3.6
2023-03-28T08:11:00.799Z,3.7
2023-03-28T08:12:00.639Z,3.8
2023-03-28T08:13:00.662Z,3.8
2023-03-28T08:14:00.637Z,3.8
2023-03-28T08:15:00.649Z,3.8
2023-03-28T08:16:00.676Z,3.9
2023-03-28T08:17:00.640Z,3.9
2023-03-28T08:18:00.664Z,3.9
2023-03-28T08:19:10.581Z,4
2023-03-28T08:20:00.630Z,4
2023-03-28T08:21:00.803Z,4
2023-03-28T08:22:00.634Z,4.1
2023-03-28T08:23:00.657Z,4.1
2023-03-28T08:24:00.650Z,4.2
2023-03-28T08:25:00.641Z,4.3
2023-03-28T08:26:00.657Z,4.4
2023-03-28T08:27:00.656Z,4.6
2023-03-28T08:28:00.664Z,4.7
2023-03-28T08:29:00.642Z,4.8
2023-03-28T08:30:00.683Z,4.8
2023-03-28T08:31:00.933Z,4.8
2023-03-28T08:32:00.668Z,4.7
2023-03-28T08:33:00.683Z,4.6
2023-03-28T08:34:00.645Z,4.6
2023-03-28T08:35:00.716Z,4.6
2023-03-28T08:36:00.716Z,4.5
2023-03-28T08:37:00.658Z,4.5
2023-03-28T08:38:00.654Z,4.6
2023-03-28T08:39:00.854Z,4.7
2023-03-28T08:40:00.679Z,4.7
2023-03-28T08:41:00.813Z,4.8
2023-03-28T08:42:00.668Z,4.8
2023-03-28T08:43:00.674Z,4.9
2023-03-28T08:44:00.660Z,5
2023-03-28T08:45:00.682Z,5
2023-03-28T08:46:00.655Z,5.1
2023-03-28T08:47:00.676Z,5.1
2023-03-28T08:48:00.759Z,5.2
2023-03-28T08:49:00.667Z,5.4
2023-03-28T08:50:00.684Z,5.4
2023-03-28T08:51:00.806Z,5.4
2023-03-28T08:52:00.674Z,5.5
2023-03-28T08:53:00.692Z,5.6
2023-03-28T08:54:00.675Z,5.8
2023-03-28T08:55:00.692Z,5.9
2023-03-28T08:56:00.685Z,6.1
2023-03-28T08:57:00.684Z,6.1
2023-03-28T08:58:00.676Z,6.1
2023-03-28T08:59:00.668Z,6.2
2023-03-28T09:00:00.693Z,6.2
2023-03-28T09:01:01.015Z,6.2
2023-03-28T09:02:00.774Z,6.4
2023-03-28T09:03:00.806Z,6.5
2023-03-28T09:04:00.819Z,6.6
2023-03-28T09:05:17.885Z,6.6
2023-03-28T09:06:00.918Z,6.7
2023-03-28T09:07:00.678Z,6.8
2023-03-28T09:08:00.710Z,6.8
2023-03-28T09:09:00.693Z,6.8
2023-03-28T09:10:00.698Z,6.8
2023-03-28T09:11:00.887Z,6.7
2023-03-28T09:12:00.685Z,6.6
2023-03-28T09:13:00.693Z,6.6
2023-03-28T09:14:00.692Z,6.5
2023-03-28T09:15:00.708Z,6.4
2023-03-28T09:16:00.737Z,6.4
2023-03-28T09:17:00.693Z,6.4
2023-03-28T09:18:00.728Z,6.4
2023-03-28T09:19:00.733Z,6.4
2023-03-28T09:20:00.722Z,6.4
2023-03-28T09:21:00.994Z,6.4
2023-03-28T09:23:00.722Z,6.6
2023-03-28T09:24:00.710Z,6.6
2023-03-28T09:25:00.716Z,6.8
2023-03-28T09:26:01.765Z,6.8
2023-03-28T09:27:00.698Z,7
2023-03-28T09:28:00.700Z,7.1
2023-03-28T09:29:00.785Z,7.1
2023-03-28T09:30:00.710Z,7.2
2023-03-28T09:31:01.077Z,7.1
2023-03-28T09:32:00.718Z,7.1
2023-03-28T09:33:00.789Z,6.9
2023-03-28T09:34:00.730Z,6.8
2023-03-28T09:35:00.710Z,6.6
2023-03-28T09:36:00.738Z,6.3
2023-03-28T09:37:00.724Z,6.2
2023-03-28T09:38:00.733Z,6
2023-03-28T09:39:00.728Z,5.9
2023-03-28T09:40:00.725Z,5.8
2023-03-28T09:41:00.813Z,5.6
2023-03-28T09:42:00.738Z,5.6
2023-03-28T09:43:00.729Z,5.5
2023-03-28T09:44:00.742Z,5.5
2023-03-28T09:45:00.727Z,5.5
2023-03-28T09:46:00.765Z,5.5
2023-03-28T09:47:00.762Z,5.6
2023-03-28T09:48:00.852Z,5.6
2023-03-28T09:49:00.804Z,5.8
2023-03-28T09:50:11.899Z,5.9
2023-03-28T09:51:00.956Z,6
2023-03-28T09:52:00.742Z,6.1
2023-03-28T09:53:00.752Z,6.1
2023-03-28T09:54:01.302Z,6.1
2023-03-28T09:55:00.740Z,6.1
2023-03-28T09:56:04.299Z,6.1
2023-03-28T09:57:00.792Z,6
2023-03-28T09:58:00.737Z,5.9
2023-03-28T09:59:00.739Z,5.9
2023-03-28T10:00:00.811Z,5.9
2023-03-28T10:01:01.080Z,5.9
2023-03-28T10:02:00.843Z,5.9
2023-03-28T10:03:00.822Z,5.9
2023-03-28T10:04:00.817Z,5.9
2023-03-28T10:05:01.925Z,5.8
2023-03-28T10:06:00.755Z,5.8
2023-03-28T10:07:00.802Z,5.9
2023-03-28T10:08:00.754Z,5.9
2023-03-28T10:09:00.742Z,5.9
2023-03-28T10:10:00.742Z,5.9
2023-03-28T10:11:01.058Z,5.9
2023-03-28T10:12:00.773Z,6.1
2023-03-28T10:13:00.807Z,6.2
2023-03-28T10:14:00.746Z,6.3
2023-03-28T10:15:00.751Z,6.4
2023-03-28T10:16:00.850Z,6.6
2023-03-28T10:18:00.773Z,6.7
2023-03-28T10:19:00.766Z,6.8
2023-03-28T10:20:00.848Z,6.9
2023-03-28T10:21:00.916Z,6.9
2023-03-28T10:22:00.828Z,7
2023-03-28T10:23:02.674Z,7.1
2023-03-28T10:24:00.867Z,7.1
2023-03-28T10:25:00.836Z,7.2
2023-03-28T10:26:00.838Z,7.2
2023-03-28T10:27:00.854Z,7.2
2023-03-28T10:28:00.860Z,7.3
2023-03-28T10:29:02.955Z,7.4
2023-03-28T10:30:00.849Z,7.4
2023-03-28T10:31:01.233Z,7.4
2023-03-28T10:32:00.865Z,7.4
2023-03-28T10:33:00.935Z,7.4
2023-03-28T10:34:00.902Z,7.4
2023-03-28T10:35:01.087Z,7.4
2023-03-28T10:36:00.953Z,7.4
2023-03-28T10:37:00.868Z,7.4
2023-03-28T10:38:00.810Z,7.5
2023-03-28T10:39:00.901Z,7.6
2023-03-28T10:40:01.031Z,7.6
2023-03-28T10:41:01.184Z,7.6
2023-03-28T10:42:00.983Z,7.6
2023-03-28T10:43:00.962Z,7.6
2023-03-28T10:44:00.928Z,7.7
2023-03-28T10:45:00.905Z,7.8
2023-03-28T10:46:00.909Z,7.8
2023-03-28T10:47:00.837Z,7.8
2023-03-28T10:48:00.931Z,7.8
2023-03-28T10:49:00.813Z,7.8
2023-03-28T10:50:00.836Z,7.9
2023-03-28T10:51:01.034Z,7.9
2023-03-28T10:52:00.797Z,7.9
2023-03-28T10:53:00.821Z,7.9
2023-03-28T10:54:00.796Z,8
2023-03-28T10:55:00.826Z,8.1
2023-03-28T10:56:00.840Z,8.2
2023-03-28T10:57:00.804Z,8.1
2023-03-28T10:58:00.826Z,8.2
2023-03-28T10:59:00.819Z,8.2
2023-03-28T11:00:00.801Z,8.3
2023-03-28T11:01:01.075Z,8.3
2023-03-28T11:02:00.931Z,8.4
2023-03-28T11:03:00.891Z,8.4
2023-03-28T11:04:00.972Z,8.4
2023-03-28T11:05:00.805Z,8.4
2023-03-28T11:06:09.522Z,8.4
2023-03-28T11:07:00.831Z,8.5
2023-03-28T11:08:00.816Z,8.5
2023-03-28T11:09:00.841Z,8.6
2023-03-28T11:10:00.826Z,8.6
2023-03-28T11:11:01.015Z,8.6
2023-03-28T11:12:00.841Z,8.7
2023-03-28T11:13:02.762Z,8.8
2023-03-28T11:14:00.853Z,8.8
2023-03-28T11:15:00.858Z,8.9
2023-03-28T11:16:00.844Z,8.9
2023-03-28T11:17:00.835Z,9
2023-03-28T11:18:00.899Z,9
2023-03-28T11:19:00.840Z,9.1
2023-03-28T11:20:00.814Z,9.1
2023-03-28T11:21:01.085Z,9.1
2023-03-28T11:22:00.822Z,9.1
2023-03-28T11:23:06.225Z,9.1
2023-03-28T11:24:01.160Z,9.1
2023-03-28T11:25:00.829Z,9.1
2023-03-28T11:26:00.846Z,9.2
2023-03-28T11:28:00.840Z,9.2
2023-03-28T11:29:00.844Z,9.3
2023-03-28T11:30:00.848Z,9.4
2023-03-28T11:31:01.045Z,9.3
2023-03-28T11:32:00.864Z,9.3
2023-03-28T11:33:00.917Z,9.3
2023-03-28T11:34:00.831Z,9.3
2023-03-28T11:35:00.844Z,9.2
2023-03-28T11:36:00.937Z,9.2
2023-03-28T11:37:00.846Z,9.2
2023-03-28T11:38:00.848Z,9.1
2023-03-28T11:39:00.848Z,9
2023-03-28T11:40:00.837Z,9
2023-03-28T11:41:01.039Z,9.1
2023-03-28T11:42:00.837Z,9
2023-03-28T11:43:00.879Z,9
2023-03-28T11:44:00.872Z,9.1
2023-03-28T11:45:00.853Z,9.2
2023-03-28T11:46:00.919Z,9.2
2023-03-28T11:47:00.853Z,9.2
2023-03-28T11:48:00.902Z,9.3
2023-03-28T11:49:00.851Z,9.4
2023-03-28T11:50:00.864Z,9.4
2023-03-28T11:51:00.993Z,9.4
2023-03-28T11:52:00.851Z,9.4
2023-03-28T11:53:00.873Z,9.4
2023-03-28T11:54:00.859Z,9.5
2023-03-28T11:55:00.872Z,9.6
2023-03-28T11:56:00.995Z,9.6
2023-03-28T11:57:00.888Z,9.8
2023-03-28T11:58:00.874Z,9.9
2023-03-28T11:59:00.889Z,10
2023-03-28T12:00:00.869Z,10.1
2023-03-28T12:01:01.154Z,10.2
2023-03-28T12:02:00.919Z,10.2
2023-03-28T12:03:01.108Z,10.2
2023-03-28T12:04:00.998Z,10.2
2023-03-28T12:05:00.877Z,10.2
2023-03-28T12:06:08.359Z,10.2
2023-03-28T12:07:03.139Z,10.2
2023-03-28T12:08:00.897Z,10.2
2023-03-28T12:09:00.862Z,10.2
2023-03-28T12:10:00.873Z,10.3
2023-03-28T12:11:01.055Z,10.4
2023-03-28T12:12:00.888Z,10.2
2023-03-28T12:13:00.893Z,10.2
2023-03-28T12:14:11.644Z,10.3
2023-03-28T12:15:00.897Z,10.4
2023-03-28T12:16:00.886Z,10.4
2023-03-28T12:17:00.907Z,10.4
2023-03-28T12:18:01.015Z,10.4
2023-03-28T12:19:00.869Z,10.3
2023-03-28T12:20:00.876Z,10.3
2023-03-28T12:21:01.098Z,10.2
2023-03-28T12:22:00.903Z,10.2
2023-03-28T12:23:00.897Z,10.3
2023-03-28T12:24:00.890Z,10.2
2023-03-28T12:25:00.901Z,10.2
2023-03-28T12:26:00.891Z,10.2
2023-03-28T12:27:00.887Z,10.2
2023-03-28T12:28:00.908Z,10.2
2023-03-28T12:29:00.912Z,10.2
2023-03-28T12:30:00.885Z,10.2
2023-03-28T12:31:01.193Z,10.2
2023-03-28T12:32:00.890Z,10.2
2023-03-28T12:33:00.964Z,10.2
2023-03-28T12:34:00.888Z,10.3
2023-03-28T12:35:00.893Z,10.4
2023-03-28T12:36:00.909Z,10.4
2023-03-28T12:37:00.892Z,10.5
2023-03-28T12:38:00.925Z,10.6
2023-03-28T12:39:00.896Z,10.6
2023-03-28T12:40:00.913Z,10.6
2023-03-28T12:41:01.195Z,10.6
2023-03-28T12:42:00.861Z,10.7
2023-03-28T12:43:00.853Z,10.7
2023-03-28T12:44:00.831Z,10.7
2023-03-28T12:45:00.792Z,10.8
2023-03-28T12:46:00.806Z,10.7
2023-03-28T12:47:00.708Z,10.7
2023-03-28T12:48:00.735Z,10.7
2023-03-28T12:49:00.664Z,10.7
2023-03-28T12:50:00.646Z,10.6
2023-03-28T12:51:00.773Z,10.6
2023-03-28T12:52:00.585Z,10.5
2023-03-28T12:53:00.558Z,10.4
2023-03-28T12:54:00.549Z,10.3
2023-03-28T12:55:01.836Z,10.2
2023-03-28T12:56:00.885Z,10.2
2023-03-28T12:57:00.840Z,10.2
2023-03-28T12:58:00.561Z,10.2
2023-03-28T12:59:00.568Z,10
2023-03-28T13:00:00.574Z,9.9
2023-03-28T13:01:00.736Z,9.9
2023-03-28T13:02:00.614Z,10
2023-03-28T13:03:00.645Z,10
2023-03-28T13:04:00.628Z,10
2023-03-28T13:05:00.570Z,10.1
2023-03-28T13:06:00.752Z,10.1
2023-03-28T13:07:00.576Z,10.2
2023-03-28T13:08:00.572Z,10.2
2023-03-28T13:09:00.558Z,10.2
2023-03-28T13:10:00.615Z,10.4
2023-03-28T13:11:00.728Z,10.5
2023-03-28T13:12:00.596Z,10.6
2023-03-28T13:13:00.569Z,10.6
2023-03-28T13:14:00.612Z,10.6
2023-03-28T13:15:00.590Z,10.6
2023-03-28T13:16:00.667Z,10.7
2023-03-28T13:17:00.579Z,10.7
2023-03-28T13:18:00.607Z,10.7
2023-03-28T13:19:00.572Z,10.8
2023-03-28T13:20:00.624Z,10.7
2023-03-28T13:21:00.780Z,10.7
2023-03-28T13:22:00.597Z,10.6
2023-03-28T13:23:00.584Z,10.6
2023-03-28T13:24:00.585Z,10.6
2023-03-28T13:25:00.830Z,10.7
2023-03-28T13:26:00.840Z,10.8
2023-03-28T13:27:00.601Z,10.8
2023-03-28T13:28:00.649Z,10.8
2023-03-28T13:29:00.606Z,10.8
2023-03-28T13:30:00.613Z,10.8
2023-03-28T13:31:00.640Z,10.8
2023-03-28T13:32:00.587Z,10.8
2023-03-28T13:33:00.618Z,10.8
2023-03-28T13:34:00.605Z,10.7
2023-03-28T13:35:00.604Z,10.7
2023-03-28T13:36:00.785Z,10.8
2023-03-28T13:37:00.586Z,10.8